createdAt,value
2018-10-03T00:01:45.121Z,63.03
2018-10-03T00:04:13.356Z,60.33
2018-10-03T00:06:41.554Z,60.53
2018-10-03T00:09:10.435Z,57.20
2018-10-03T00:11:38.545Z,60.00
2018-10-03T00:14:07.088Z,54.00
2018-10-03T00:16:35.228Z,54.83
2018-10-03T00:19:03.428Z,54.80
2018-10-03T00:21:31.557Z,57.50
2018-10-03T00:23:59.674Z,58.30
2018-10-03T00:26:27.969Z,56.50
2018-10-03T00:28:56.054Z,57.90
2018-10-03T00:31:24.177Z,52.33
2018-10-03T00:33:52.275Z,59.03
2018-10-03T00:36:20.386Z,52.93
2018-10-03T00:38:48.496Z,59.60
2018-10-03T00:41:16.590Z,52.73
2018-10-03T00:43:44.687Z,51.00
2018-10-03T00:46:12.802Z,56.90
2018-10-03T00:48:40.910Z,50.30
2018-10-03T00:51:09.013Z,49.60
2018-10-03T00:53:37.311Z,49.70
2018-10-03T00:56:05.902Z,39.37
2018-10-03T00:58:34.014Z,53.27
2018-10-03T01:01:02.972Z,49.43
2018-10-03T01:03:31.077Z,51.63
2018-10-03T01:05:59.164Z,45.97
2018-10-03T01:08:27.261Z,50.13
2018-10-03T01:10:55.350Z,43.20
2018-10-03T01:13:23.443Z,51.20
2018-10-03T01:15:51.553Z,50.23
2018-10-03T01:18:19.662Z,51.53
2018-10-03T01:20:47.762Z,54.13
2018-10-03T01:23:15.868Z,54.37
2018-10-03T01:25:43.972Z,49.10
2018-10-03T01:28:12.071Z,52.90
2018-10-03T01:30:40.189Z,51.37
2018-10-03T01:33:08.300Z,57.70
2018-10-03T01:35:36.410Z,56.10
2018-10-03T01:38:04.504Z,60.73
2018-10-03T01:40:32.627Z,66.80
2018-10-03T01:43:00.725Z,55.67
2018-10-03T01:45:28.844Z,56.27
2018-10-03T01:47:56.942Z,54.57
2018-10-03T01:50:25.055Z,60.97
2018-10-03T01:52:53.196Z,65.10
2018-10-03T01:55:21.328Z,57.93
2018-10-03T01:57:49.449Z,74.43
2018-10-03T02:00:17.543Z,62.43
2018-10-03T02:02:45.643Z,63.60
2018-10-03T02:05:13.790Z,68.47
2018-10-03T02:07:41.892Z,73.77
2018-10-03T02:10:10.001Z,65.50
2018-10-03T02:12:38.132Z,76.40
2018-10-03T02:15:06.237Z,62.87
2018-10-03T02:17:34.331Z,67.73
2018-10-03T02:20:02.487Z,65.53
2018-10-03T02:22:30.572Z,65.90
2018-10-03T02:24:58.666Z,57.53
2018-10-03T02:27:26.763Z,66.23
2018-10-03T02:29:54.863Z,53.97
2018-10-03T02:32:22.969Z,63.93
2018-10-03T02:34:51.057Z,56.47
2018-10-03T02:37:19.215Z,59.17
2018-10-03T02:39:47.316Z,55.90
2018-10-03T02:42:15.414Z,64.33
2018-10-03T02:44:43.537Z,52.43
2018-10-03T02:47:11.650Z,58.97
2018-10-03T02:49:39.735Z,61.07
2018-10-03T02:52:07.811Z,58.80
2018-10-03T02:54:35.900Z,59.67
2018-10-03T02:57:04.025Z,60.83
2018-10-03T02:59:32.104Z,56.47
2018-10-03T03:02:00.185Z,60.73
2018-10-03T03:04:28.440Z,69.77
2018-10-03T03:06:56.538Z,67.23
2018-10-03T03:09:24.619Z,63.40
2018-10-03T03:11:52.720Z,69.00
2018-10-03T03:14:20.827Z,79.63
2018-10-03T03:16:48.924Z,86.80
2018-10-03T03:19:17.025Z,86.30
2018-10-03T03:21:45.122Z,92.93
2018-10-03T03:24:13.244Z,92.93
2018-10-03T03:26:41.361Z,112.53
2018-10-03T03:29:09.472Z,109.97
2018-10-03T03:31:37.586Z,116.17
2018-10-03T03:34:05.679Z,114.77
2018-10-03T03:36:33.813Z,126.40
2018-10-03T03:39:01.917Z,123.60
2018-10-03T03:41:30.053Z,126.70
2018-10-03T03:43:58.173Z,141.40
2018-10-03T03:46:26.278Z,135.43
2018-10-03T03:48:54.385Z,138.67
2018-10-03T03:51:22.467Z,154.10
2018-10-03T03:53:50.585Z,161.47
2018-10-03T03:56:18.707Z,162.80
2018-10-03T03:58:46.816Z,178.77
2018-10-03T04:01:15.042Z,176.30
2018-10-03T04:03:43.162Z,180.10
2018-10-03T04:06:11.271Z,174.20
2018-10-03T04:08:39.415Z,180.97
2018-10-03T04:11:07.524Z,164.70
2018-10-03T04:13:35.634Z,182.77
2018-10-03T04:16:03.740Z,152.23
2018-10-03T04:18:31.850Z,136.67
2018-10-03T04:20:59.954Z,150.53
2018-10-03T04:23:28.232Z,145.17
2018-10-03T04:25:56.308Z,144.47
2018-10-03T04:28:24.396Z,136.73
2018-10-03T04:30:52.486Z,142.90
2018-10-03T04:33:20.585Z,132.80
2018-10-03T04:35:48.754Z,126.90
2018-10-03T04:38:16.764Z,126.77
2018-10-03T04:40:44.871Z,125.37
2018-10-03T04:43:12.977Z,109.70
2018-10-03T04:45:41.075Z,121.83
2018-10-03T04:48:09.171Z,108.43
2018-10-03T04:50:37.253Z,113.80
2018-10-03T04:53:05.666Z,109.10
2018-10-03T04:55:33.763Z,117.70
2018-10-03T04:58:01.878Z,109.47
2018-10-03T05:00:29.959Z,93.60
2018-10-03T05:02:58.061Z,110.90
2018-10-03T05:05:26.137Z,109.53
2018-10-03T05:07:54.236Z,110.10
2018-10-03T05:10:22.307Z,115.67
2018-10-03T05:12:50.412Z,98.33
2018-10-03T05:15:18.529Z,102.77
2018-10-03T05:17:46.648Z,101.60
2018-10-03T05:20:14.736Z,81.80
2018-10-03T05:22:42.874Z,94.37
2018-10-03T05:25:10.986Z,91.53
2018-10-03T05:27:39.121Z,79.20
2018-10-03T05:30:07.189Z,75.50
2018-10-03T05:32:35.288Z,74.90
2018-10-03T05:35:03.403Z,74.00
2018-10-03T05:37:31.508Z,70.90
2018-10-03T05:39:59.607Z,64.07
2018-10-03T05:42:27.707Z,63.30
2018-10-03T05:44:55.840Z,52.43
2018-10-03T05:47:23.929Z,58.43
2018-10-03T05:49:52.049Z,59.83
2018-10-03T05:52:20.146Z,64.30
2018-10-03T05:54:48.333Z,56.17
2018-10-03T05:57:16.379Z,56.23
2018-10-03T05:59:44.477Z,70.97
2018-10-03T06:02:12.613Z,57.90
2018-10-03T06:04:41.055Z,49.83
2018-10-03T06:07:09.153Z,58.27
2018-10-03T06:09:37.268Z,50.83
2018-10-03T06:12:05.429Z,50.57
2018-10-03T06:14:33.485Z,45.40
2018-10-03T06:17:01.787Z,47.30
2018-10-03T06:19:29.889Z,40.33
2018-10-03T06:21:58.347Z,41.50
2018-10-03T06:24:26.468Z,39.63
2018-10-03T06:26:54.561Z,41.53
2018-10-03T06:29:22.925Z,36.80
2018-10-03T06:31:51.003Z,42.60
2018-10-03T06:34:19.162Z,38.63
2018-10-03T06:36:47.244Z,40.03
2018-10-03T06:39:15.887Z,38.63
2018-10-03T06:41:43.967Z,30.73
2018-10-03T06:44:12.160Z,36.10
2018-10-03T06:46:40.250Z,36.63
2018-10-03T06:49:08.373Z,41.67
2018-10-03T06:51:36.476Z,31.33
2018-10-03T06:54:04.601Z,32.47
2018-10-03T06:56:32.701Z,38.07
2018-10-03T06:59:01.349Z,31.17
2018-10-03T07:01:29.457Z,27.47
2018-10-03T07:03:57.541Z,32.13
2018-10-03T07:06:25.652Z,29.53
2018-10-03T07:08:53.934Z,24.60
2018-10-03T07:11:22.031Z,25.90
2018-10-03T07:13:50.156Z,39.90
2018-10-03T07:16:18.671Z,27.97
2018-10-03T07:18:46.786Z,31.77
2018-10-03T07:21:14.892Z,34.53
2018-10-03T07:23:42.999Z,26.93
2018-10-03T07:26:11.323Z,30.97
2018-10-03T07:28:39.391Z,33.37
2018-10-03T07:31:07.610Z,26.80
2018-10-03T07:33:35.724Z,31.00
2018-10-03T07:36:04.174Z,27.43
2018-10-03T07:38:32.276Z,29.57
2018-10-03T07:41:00.392Z,24.40
2018-10-03T07:43:28.506Z,22.00
2018-10-03T07:45:56.631Z,31.57
2018-10-03T07:48:24.830Z,25.43
2018-10-03T07:50:52.949Z,21.60
2018-10-03T07:53:21.074Z,24.73
2018-10-03T07:55:49.189Z,21.77
2018-10-03T07:58:17.310Z,24.63
2018-10-03T08:00:45.407Z,21.10
2018-10-03T08:03:14.485Z,22.10
2018-10-03T08:05:42.610Z,21.53
2018-10-03T08:08:10.739Z,25.70
2018-10-03T08:10:39.625Z,19.67
2018-10-03T08:13:07.765Z,22.27
2018-10-03T08:15:36.010Z,19.07
2018-10-03T08:18:05.647Z,17.43
2018-10-03T08:20:33.942Z,21.33
2018-10-03T08:23:02.127Z,21.30
2018-10-03T08:25:30.246Z,16.73
2018-10-03T08:27:58.364Z,17.83
2018-10-03T08:30:26.480Z,19.07
2018-10-03T08:32:54.653Z,14.53
2018-10-03T08:35:22.711Z,18.50
2018-10-03T08:37:50.824Z,25.07
2018-10-03T08:40:18.929Z,20.70
2018-10-03T08:42:47.028Z,20.40
2018-10-03T08:45:15.271Z,20.83
2018-10-03T08:47:43.383Z,25.73
2018-10-03T08:50:12.460Z,22.73
2018-10-03T08:52:40.582Z,23.43
2018-10-03T08:55:08.916Z,18.47
2018-10-03T08:57:37.864Z,21.73
2018-10-03T09:00:06.062Z,21.77
2018-10-03T09:02:34.280Z,16.27
2018-10-03T09:05:02.396Z,20.40
2018-10-03T09:07:30.571Z,18.53
2018-10-03T09:09:58.659Z,14.87
2018-10-03T09:12:26.849Z,19.03
2018-10-03T09:14:55.185Z,26.10
2018-10-03T09:17:23.300Z,18.77
2018-10-03T09:19:51.385Z,17.40
2018-10-03T09:22:19.481Z,14.37
2018-10-03T09:24:47.571Z,16.73
2018-10-03T09:27:15.649Z,12.00
2018-10-03T09:29:43.762Z,14.73
2018-10-03T09:32:11.901Z,20.30
2018-10-03T09:34:39.989Z,16.23
2018-10-03T09:37:08.084Z,16.70
2018-10-03T09:39:36.246Z,13.90
2018-10-03T09:42:05.416Z,21.47
2018-10-03T09:44:33.502Z,16.93
2018-10-03T09:47:01.698Z,21.27
2018-10-03T09:49:29.798Z,20.07
2018-10-03T09:51:57.896Z,18.20
2018-10-03T09:54:25.998Z,16.07
2018-10-03T09:56:54.090Z,18.47
2018-10-03T09:59:22.178Z,14.63
2018-10-03T10:01:50.302Z,17.70
2018-10-03T10:04:18.395Z,14.70
2018-10-03T10:06:46.687Z,13.90
2018-10-03T10:09:14.781Z,16.83
2018-10-03T10:11:43.040Z,12.07
2018-10-03T10:14:10.964Z,18.37
2018-10-03T10:16:39.102Z,21.70
2018-10-03T10:19:07.338Z,12.37
2018-10-03T10:21:35.460Z,15.60
2018-10-03T10:24:03.569Z,17.60
2018-10-03T10:26:31.682Z,14.27
2018-10-03T10:28:59.813Z,17.00
2018-10-03T10:31:27.928Z,17.43
2018-10-03T10:33:56.034Z,17.50
2018-10-03T10:36:24.187Z,22.60
2018-10-03T10:38:52.254Z,15.83
2018-10-03T10:41:20.543Z,16.30
2018-10-03T10:43:48.892Z,17.30
2018-10-03T10:46:16.994Z,22.37
2018-10-03T10:48:45.112Z,14.90
2018-10-03T10:51:13.208Z,18.20
2018-10-03T10:53:41.304Z,18.03
2018-10-03T10:56:09.435Z,19.77
2018-10-03T10:58:37.541Z,12.13
2018-10-03T11:01:05.646Z,22.33
2018-10-03T11:03:33.760Z,18.97
2018-10-03T11:06:01.898Z,19.70
2018-10-03T11:08:30.006Z,17.57
2018-10-03T11:10:58.136Z,19.00
2018-10-03T11:13:26.265Z,20.10
2018-10-03T11:15:54.388Z,16.23
2018-10-03T11:18:22.512Z,20.40
2018-10-03T11:20:50.604Z,20.53
2018-10-03T11:23:18.693Z,14.90
2018-10-03T11:25:46.850Z,18.23
2018-10-03T11:28:14.946Z,15.70
2018-10-03T11:30:43.045Z,15.03
2018-10-03T11:33:11.148Z,19.83
2018-10-03T11:35:39.279Z,17.33
2018-10-03T11:38:07.602Z,16.90
2018-10-03T11:40:35.620Z,23.47
2018-10-03T11:43:03.965Z,11.57
2018-10-03T11:45:32.064Z,16.87
2018-10-03T11:48:00.189Z,12.57
2018-10-03T11:50:28.342Z,25.47
2018-10-03T11:52:56.440Z,13.73
2018-10-03T11:55:24.533Z,14.57
2018-10-03T11:57:52.666Z,14.50
2018-10-03T12:00:20.796Z,12.87
2018-10-03T12:02:48.966Z,11.63
2018-10-03T12:05:17.042Z,14.77
2018-10-03T12:07:45.172Z,21.90
2018-10-03T12:10:13.572Z,17.47
2018-10-03T12:12:41.702Z,14.23
2018-10-03T12:15:09.823Z,13.37
2018-10-03T12:17:37.951Z,10.50
2018-10-03T12:20:06.070Z,15.97
2018-10-03T12:22:34.166Z,15.27
2018-10-03T12:25:02.836Z,13.33
2018-10-03T12:27:31.448Z,13.97
2018-10-03T12:29:59.717Z,18.23
2018-10-03T12:32:28.181Z,18.17
2018-10-03T12:34:56.642Z,15.90
2018-10-03T12:37:24.941Z,18.60
2018-10-03T12:39:53.016Z,16.07
2018-10-03T12:42:21.100Z,20.07
2018-10-03T12:44:49.387Z,14.47
2018-10-03T12:47:17.976Z,13.40
2018-10-03T12:49:46.338Z,16.20
2018-10-03T12:52:14.493Z,14.10
2018-10-03T12:54:42.673Z,13.87
2018-10-03T12:57:10.877Z,12.63
2018-10-03T12:59:38.964Z,13.37
2018-10-03T13:02:07.660Z,12.80
2018-10-03T13:04:35.996Z,16.20
2018-10-03T13:07:04.108Z,16.37
2018-10-03T13:09:32.193Z,16.90
2018-10-03T13:12:00.298Z,15.73
2018-10-03T13:14:28.403Z,19.73
2018-10-03T13:16:56.526Z,15.70
2018-10-03T13:19:24.827Z,17.40
2018-10-03T13:21:52.965Z,18.60
2018-10-03T13:24:21.115Z,17.33
2018-10-03T13:26:49.572Z,10.17
2018-10-03T13:29:17.685Z,18.17
2018-10-03T13:31:45.866Z,12.13
2018-10-03T13:36:49.003Z,14.20
2018-10-03T13:39:17.664Z,18.13
2018-10-03T13:41:45.820Z,17.53
2018-10-03T13:44:13.930Z,13.80
2018-10-03T13:46:42.167Z,14.17
2018-10-03T13:49:10.390Z,14.93
2018-10-03T13:51:38.500Z,14.87
2018-10-03T13:54:06.671Z,14.63
2018-10-03T13:56:34.760Z,14.57
2018-10-03T13:59:02.987Z,15.47
2018-10-03T14:01:31.106Z,20.40
2018-10-03T14:03:59.731Z,15.00
2018-10-03T14:06:28.419Z,15.33
2018-10-03T14:08:56.634Z,12.47
2018-10-03T14:11:25.030Z,9.90
2018-10-03T14:13:53.136Z,10.07
2018-10-03T14:16:21.228Z,18.10
2018-10-03T14:18:49.531Z,15.40
2018-10-03T14:21:18.236Z,8.90
2018-10-03T14:23:46.658Z,24.30
2018-10-03T14:26:14.829Z,15.87
2018-10-03T14:28:42.946Z,17.53
2018-10-03T14:31:11.034Z,10.57
2018-10-03T14:33:39.251Z,11.30
2018-10-03T14:36:08.119Z,13.77
2018-10-03T14:38:36.232Z,13.03
2018-10-03T14:41:04.433Z,13.00
2018-10-03T14:43:32.542Z,17.10
2018-10-03T14:46:00.662Z,14.10
2018-10-03T14:48:29.193Z,13.17
2018-10-03T14:50:57.837Z,10.20
2018-10-03T14:56:00.669Z,12.90
2018-10-03T14:58:28.797Z,11.10
2018-10-03T15:00:56.964Z,14.20
2018-10-03T15:03:25.101Z,16.27
2018-10-03T15:05:53.228Z,13.17
2018-10-03T15:08:21.323Z,13.00
2018-10-03T15:10:49.555Z,15.53
2018-10-03T15:13:17.768Z,11.13
2018-10-03T15:15:46.515Z,12.30
2018-10-03T15:18:14.719Z,20.63
2018-10-03T15:20:42.812Z,13.70
2018-10-03T15:23:11.056Z,10.93
2018-10-03T15:25:39.178Z,14.30
2018-10-03T15:28:07.296Z,14.67
2018-10-03T15:30:35.422Z,16.50
2018-10-03T15:33:03.624Z,14.63
2018-10-03T15:35:31.860Z,15.47
2018-10-03T15:38:00.091Z,22.07
2018-10-03T15:40:28.232Z,13.90
2018-10-03T15:42:56.422Z,13.93
2018-10-03T15:45:24.546Z,16.50
2018-10-03T15:47:52.643Z,15.17
2018-10-03T15:50:20.745Z,18.93
2018-10-03T15:52:48.923Z,25.93
2018-10-03T15:55:17.051Z,11.83
2018-10-03T15:57:45.338Z,21.80
2018-10-03T16:00:13.449Z,11.13
2018-10-03T16:02:41.604Z,15.03
2018-10-03T16:05:10.064Z,18.43
2018-10-03T16:07:38.363Z,15.30
2018-10-03T16:10:06.613Z,15.77
2018-10-03T16:12:34.905Z,11.93
2018-10-03T16:15:03.156Z,20.53
2018-10-03T16:17:31.344Z,16.20
2018-10-03T16:19:59.500Z,14.00
2018-10-03T16:22:27.750Z,18.93
2018-10-03T16:24:55.908Z,8.37
2018-10-03T16:27:23.988Z,14.83
2018-10-03T16:29:52.181Z,26.47
2018-10-03T16:32:20.327Z,15.50
2018-10-03T16:34:48.414Z,13.97
2018-10-03T16:37:16.503Z,14.03
2018-10-03T16:39:44.610Z,12.30
2018-10-03T16:42:12.722Z,12.87
2018-10-03T16:44:40.830Z,19.40
2018-10-03T16:47:09.684Z,14.47
2018-10-03T16:49:37.853Z,14.30
2018-10-03T16:52:05.956Z,13.67
2018-10-03T16:54:34.110Z,15.17
2018-10-03T16:57:02.210Z,13.83
2018-10-03T16:59:30.308Z,9.80
2018-10-03T17:01:58.412Z,12.03
2018-10-03T17:04:26.556Z,12.63
2018-10-03T17:06:54.689Z,14.50
2018-10-03T17:09:22.763Z,17.87
2018-10-03T17:11:50.890Z,12.50
2018-10-03T17:14:24.081Z,20.63
2018-10-03T17:16:52.811Z,14.27
2018-10-03T17:19:21.109Z,15.20
2018-10-03T17:21:50.233Z,10.83
2018-10-03T17:24:18.653Z,17.03
2018-10-03T17:26:46.837Z,14.10
2018-10-03T17:29:15.320Z,24.20
2018-10-03T17:31:44.196Z,14.67
2018-10-03T17:34:12.937Z,16.57
2018-10-03T17:36:41.123Z,15.83
2018-10-03T17:39:09.421Z,23.30
2018-10-03T17:41:37.751Z,12.50
2018-10-03T17:44:05.842Z,10.97
2018-10-03T17:46:33.940Z,17.30
2018-10-03T17:49:02.081Z,11.53
2018-10-03T17:51:30.136Z,13.27
2018-10-03T17:53:58.597Z,14.67
2018-10-03T17:56:26.823Z,12.50
2018-10-03T17:58:55.041Z,14.13
2018-10-03T18:01:24.228Z,11.10
2018-10-03T18:03:52.317Z,11.97
2018-10-03T18:06:20.704Z,17.13
2018-10-03T18:08:49.061Z,20.07
2018-10-03T18:11:17.158Z,13.20
2018-10-03T18:13:45.407Z,20.73
2018-10-03T18:16:13.593Z,16.97
2018-10-03T18:18:41.695Z,21.60
2018-10-03T18:21:10.046Z,14.77
2018-10-03T18:23:38.605Z,12.93
2018-10-03T18:26:07.076Z,10.87
2018-10-03T18:28:35.332Z,12.13
2018-10-03T18:31:03.564Z,18.23
2018-10-03T18:33:31.727Z,18.03
2018-10-03T18:36:00.129Z,19.07
2018-10-03T18:38:28.970Z,8.80
2018-10-03T18:40:57.228Z,10.67
2018-10-03T18:43:25.377Z,12.00
2018-10-03T18:45:53.608Z,13.60
2018-10-03T18:48:21.777Z,14.50
2018-10-03T18:50:50.515Z,14.50
2018-10-03T18:53:19.137Z,15.03
2018-10-03T18:55:47.491Z,10.57
2018-10-03T18:58:15.808Z,12.83
2018-10-03T19:00:43.902Z,19.73
2018-10-03T19:03:12.005Z,12.67
2018-10-03T19:05:40.347Z,11.63
2018-10-03T19:08:09.212Z,11.90
2018-10-03T19:10:37.923Z,14.17
2018-10-03T19:13:06.021Z,11.47
2018-10-03T19:15:34.144Z,8.90
2018-10-03T19:18:02.390Z,13.70
2018-10-03T19:20:30.752Z,14.87
2018-10-03T19:22:59.293Z,12.50
2018-10-03T19:25:27.569Z,12.70
2018-10-03T19:27:56.002Z,13.50
2018-10-03T19:30:24.183Z,14.23
2018-10-03T19:32:52.462Z,15.30
2018-10-03T19:35:20.912Z,14.47
2018-10-03T19:37:50.009Z,14.60
2018-10-03T19:40:18.188Z,15.83
2018-10-03T19:42:46.595Z,23.40
2018-10-03T19:45:14.724Z,22.40
2018-10-03T19:47:42.863Z,26.37
2018-10-03T19:50:11.103Z,42.63
2018-10-03T19:52:39.769Z,25.13
2018-10-03T19:55:08.845Z,22.52
2018-10-03T19:57:37.762Z,28.00
2018-10-03T20:00:05.929Z,39.20
2018-10-03T20:02:34.105Z,28.30
2018-10-03T20:05:02.586Z,31.02
2018-10-03T20:07:30.986Z,31.37
2018-10-03T20:09:59.716Z,52.00
2018-10-03T20:12:28.324Z,50.75
2018-10-03T20:14:56.941Z,54.25
2018-10-03T20:17:25.064Z,53.90
2018-10-03T20:19:53.165Z,48.25
2018-10-03T20:22:21.459Z,48.07
2018-10-03T20:24:49.571Z,40.30
2018-10-03T20:27:17.712Z,33.10
2018-10-03T20:29:46.073Z,37.88
2018-10-03T20:32:14.185Z,42.43
2018-10-03T20:34:42.299Z,34.50
2018-10-03T20:37:10.661Z,32.33
2018-10-03T20:39:39.201Z,31.37
2018-10-03T20:42:07.338Z,25.00
2018-10-03T20:44:35.452Z,28.55
2018-10-03T20:47:03.571Z,32.85
2018-10-03T20:49:31.818Z,24.32
2018-10-03T20:51:59.949Z,30.75
2018-10-03T20:54:28.155Z,27.37
2018-10-03T20:56:56.293Z,32.08
2018-10-03T20:59:24.409Z,26.93
2018-10-03T21:01:52.524Z,23.20
2018-10-03T21:04:20.960Z,26.12
2018-10-03T21:06:49.070Z,25.68
2018-10-03T21:09:18.047Z,26.68
2018-10-03T21:11:46.313Z,32.20
2018-10-03T21:14:14.401Z,26.68
2018-10-03T21:16:42.521Z,23.10
2018-10-03T21:19:10.961Z,22.07
2018-10-03T21:21:39.800Z,23.85
2018-10-03T21:24:08.273Z,28.12
2018-10-03T21:26:36.391Z,23.42
2018-10-03T21:29:04.485Z,19.92
2018-10-03T21:31:32.593Z,17.60
2018-10-03T21:34:01.048Z,15.98
2018-10-03T21:36:29.593Z,21.40
2018-10-03T21:38:57.932Z,18.55
2018-10-03T21:41:26.109Z,20.23
2018-10-03T21:43:54.210Z,21.07
2018-10-03T21:46:22.363Z,14.38
2018-10-03T21:48:50.580Z,20.35
2018-10-03T21:51:18.744Z,18.25
2018-10-03T21:53:47.543Z,18.05
2018-10-03T21:56:15.787Z,17.62
2018-10-03T21:58:43.896Z,21.82
2018-10-03T22:01:12.006Z,16.87
2018-10-03T22:03:40.196Z,20.68
2018-10-03T22:06:08.574Z,20.12
2018-10-03T22:08:36.974Z,17.32
2018-10-03T22:11:05.081Z,19.05
2018-10-03T22:13:33.202Z,16.40
2018-10-03T22:16:01.490Z,24.00
2018-10-03T22:18:30.004Z,15.83
2018-10-03T22:20:58.405Z,17.20
2018-10-03T22:23:26.500Z,12.88
2018-10-03T22:25:54.615Z,16.05
2018-10-03T22:28:22.745Z,17.32
2018-10-03T22:30:51.218Z,18.82
2018-10-03T22:33:19.619Z,24.80
2018-10-03T22:35:48.218Z,14.45
2018-10-03T22:38:16.527Z,10.95
2018-10-03T22:40:44.630Z,17.57
2018-10-03T22:43:12.742Z,12.00
2018-10-03T22:45:40.850Z,17.82
2018-10-03T22:48:08.971Z,16.32
2018-10-03T22:50:37.077Z,12.37
2018-10-03T22:53:05.197Z,17.95
2018-10-03T22:55:33.306Z,14.95
2018-10-03T22:58:01.438Z,12.98
2018-10-03T23:00:29.538Z,9.98
2018-10-03T23:02:57.646Z,18.07
2018-10-03T23:05:25.753Z,15.00
2018-10-03T23:07:53.872Z,15.50
2018-10-03T23:10:22.104Z,16.67
2018-10-03T23:12:50.233Z,15.80
2018-10-03T23:15:18.340Z,14.45
2018-10-03T23:17:46.477Z,16.37
2018-10-03T23:20:14.618Z,15.70
2018-10-03T23:22:42.822Z,22.27
2018-10-03T23:25:10.913Z,14.87
2018-10-03T23:27:39.038Z,13.72
2018-10-03T23:30:07.200Z,15.20
2018-10-03T23:32:35.323Z,11.88
2018-10-03T23:35:03.456Z,13.58
2018-10-03T23:37:31.602Z,16.65
2018-10-03T23:39:59.817Z,11.18
2018-10-03T23:42:27.920Z,14.78
2018-10-03T23:44:56.048Z,11.95
2018-10-03T23:47:24.150Z,14.07
2018-10-03T23:49:52.268Z,12.58
2018-10-03T23:52:20.370Z,13.85
2018-10-03T23:54:48.474Z,10.90
2018-10-03T23:57:16.667Z,12.33
2018-10-03T23:59:44.730Z,12.45
